Skip Navigation Links Skip Navigation Links

Current Weather

Chicago Midway, Chicago

For information only: do not use for flight planning or navigation.
Latest weather
Observation time Tuesday, December 1, 2020 7:53 AM CST
Local time Tuesday, December 1, 2020 8:39 AM CST
Flight conditions Marginal Visual Meteorological Conditions
Winds
Wind direction West-Northwest (300°)
Wind speed 7 mph
Visibility 10 mi.
Sky condition
Ceiling 2,600 ft. overcast
Cloud layer overcast 2,600 ft.
Temperature 26°F
Dewpoint 15°F
Altimeter 30.04 in.Hg
Derived measurements
Relative humidity 63%
Wind chill 18°F
Density altitude -1720 ft.
Sea-level pressure 30.08 in.Hg
Remarks
Automated weather observing station with precipitation discriminator.
METAR KMDW 011353Z 30006KT 10SM OVC026 M03/M09 A3004 RMK AO2 SLP186 T10331094

Settings

Location code

InnerDrive.Weather 4.0.6770.0 Release CLR 4.0.30319.42000
Copyright ©2018 Inner Drive Technology. All rights reserved. Portions Copyright ©1986-2018 David Braverman.

Find weather

Site navigation


Skip Navigation Links

Place info

Page info

PayPal - The safer, easier way to pay online!

Return home.

Copyright ©2020 Inner Drive Technology. Purveyors of fine, hand-crafted computer software. Page printed 2020-12-01T14:39:55 UTC.